Terminal Aerodrome Forecast
Issued by NWS

Home | Current Version | Previous Version | Text Only | Print | Product List | Glossary On
Versions: 1 2 3 4 5 6 7 8 9 10 11 12
000
FTAK31 PAFA 131140
TAFAFA
TAF
PAFA 131140Z 1312/1418 04005KT P6SM SCT120 BKN230 WS020/18030KT
     FM131800 06004KT P6SM SCT100 BKN250 WS010/10035KT=

USA.gov is the U.S. government's official web portal to all federal, state and local government web resources and services.